sensor_id;sensor_type;location;lat;lon;timestamp;P1;durP1;ratioP1;P2;durP2;ratioP2
60078;SDS011;45951;45.824;8.824;2023-06-14T00:01:17;16.05;;;13.93;;
60078;SDS011;45951;45.824;8.824;2023-06-14T00:03:00;15.25;;;13.07;;
60078;SDS011;45951;45.824;8.824;2023-06-14T00:04:40;16.75;;;13.73;;
60078;SDS011;45951;45.824;8.824;2023-06-14T00:06:21;15.55;;;12.70;;
60078;SDS011;45951;45.824;8.824;2023-06-14T00:08:04;15.65;;;13.35;;
60078;SDS011;45951;45.824;8.824;2023-06-14T00:09:47;14.98;;;12.90;;
60078;SDS011;45951;45.824;8.824;2023-06-14T00:11:27;18.27;;;14.00;;
60078;SDS011;45951;45.824;8.824;2023-06-14T00:13:08;18.45;;;14.82;;
60078;SDS011;45951;45.824;8.824;2023-06-14T00:14:49;16.30;;;13.30;;
60078;SDS011;45951;45.824;8.824;2023-06-14T00:16:29;15.85;;;13.23;;
60078;SDS011;45951;45.824;8.824;2023-06-14T00:18:10;14.65;;;12.73;;
60078;SDS011;45951;45.824;8.824;2023-06-14T00:19:51;15.30;;;11.68;;
60078;SDS011;45951;45.824;8.824;2023-06-14T00:21:32;15.30;;;12.55;;
60078;SDS011;45951;45.824;8.824;2023-06-14T00:23:13;16.77;;;13.27;;
60078;SDS011;45951;45.824;8.824;2023-06-14T00:24:53;15.43;;;12.75;;
60078;SDS011;45951;45.824;8.824;2023-06-14T00:26:33;14.32;;;12.20;;
60078;SDS011;45951;45.824;8.824;2023-06-14T00:28:14;12.73;;;11.10;;
60078;SDS011;45951;45.824;8.824;2023-06-14T00:29:55;13.48;;;12.07;;
60078;SDS011;45951;45.824;8.824;2023-06-14T00:31:35;13.25;;;10.80;;
60078;SDS011;45951;45.824;8.824;2023-06-14T00:33:15;14.43;;;12.50;;
60078;SDS011;45951;45.824;8.824;2023-06-14T00:34:56;14.52;;;11.55;;
60078;SDS011;45951;45.824;8.824;2023-06-14T00:36:36;12.95;;;11.07;;
60078;SDS011;45951;45.824;8.824;2023-06-14T00:38:16;14.55;;;10.68;;
60078;SDS011;45951;45.824;8.824;2023-06-14T00:39:57;12.82;;;10.60;;
60078;SDS011;45951;45.824;8.824;2023-06-14T00:41:37;13.55;;;11.35;;
60078;SDS011;45951;45.824;8.824;2023-06-14T00:43:17;14.02;;;11.52;;
60078;SDS011;45951;45.824;8.824;2023-06-14T00:44:58;13.93;;;11.63;;
60078;SDS011;45951;45.824;8.824;2023-06-14T00:46:39;14.95;;;11.63;;
60078;SDS011;45951;45.824;8.824;2023-06-14T00:48:19;13.43;;;11.57;;
60078;SDS011;45951;45.824;8.824;2023-06-14T00:49:59;12.77;;;11.35;;
60078;SDS011;45951;45.824;8.824;2023-06-14T00:51:40;14.30;;;11.95;;
60078;SDS011;45951;45.824;8.824;2023-06-14T00:53:21;14.48;;;11.73;;
60078;SDS011;45951;45.824;8.824;2023-06-14T00:55:03;15.18;;;12.13;;
60078;SDS011;45951;45.824;8.824;2023-06-14T00:56:43;14.73;;;12.38;;
60078;SDS011;45951;45.824;8.824;2023-06-14T00:58:23;13.82;;;12.20;;
60078;SDS011;45951;45.824;8.824;2023-06-14T01:00:04;16.35;;;13.60;;
60078;SDS011;45951;45.824;8.824;2023-06-14T01:01:48;15.40;;;13.50;;
60078;SDS011;45951;45.824;8.824;2023-06-14T01:03:29;16.92;;;13.77;;
60078;SDS011;45951;45.824;8.824;2023-06-14T01:05:09;16.98;;;14.43;;
60078;SDS011;45951;45.824;8.824;2023-06-14T01:08:50;14.63;;;13.02;;
60078;SDS011;45951;45.824;8.824;2023-06-14T01:11:18;14.82;;;13.10;;
60078;SDS011;45951;45.824;8.824;2023-06-14T01:13:05;14.88;;;12.73;;
60078;SDS011;45951;45.824;8.824;2023-06-14T01:14:48;14.25;;;12.75;;
60078;SDS011;45951;45.824;8.824;2023-06-14T01:16:30;15.93;;;13.00;;
60078;SDS011;45951;45.824;8.824;2023-06-14T01:18:11;13.15;;;11.75;;
60078;SDS011;45951;45.824;8.824;2023-06-14T01:20:03;13.90;;;11.52;;
60078;SDS011;45951;45.824;8.824;2023-06-14T01:21:49;14.35;;;11.88;;
60078;SDS011;45951;45.824;8.824;2023-06-14T01:23:31;15.45;;;11.32;;
60078;SDS011;45951;45.824;8.824;2023-06-14T01:25:12;12.52;;;10.95;;
60078;SDS011;45951;45.824;8.824;2023-06-14T01:26:54;14.07;;;11.85;;
60078;SDS011;45951;45.824;8.824;2023-06-14T01:28:38;13.82;;;11.32;;
60078;SDS011;45951;45.824;8.824;2023-06-14T01:30:19;13.95;;;11.88;;
60078;SDS011;45951;45.824;8.824;2023-06-14T01:32:01;14.13;;;12.02;;
60078;SDS011;45951;45.824;8.824;2023-06-14T01:33:41;14.60;;;12.63;;
60078;SDS011;45951;45.824;8.824;2023-06-14T01:35:22;14.70;;;12.73;;
60078;SDS011;45951;45.824;8.824;2023-06-14T01:37:02;15.05;;;12.55;;
60078;SDS011;45951;45.824;8.824;2023-06-14T01:38:43;15.63;;;13.70;;
60078;SDS011;45951;45.824;8.824;2023-06-14T01:40:24;14.80;;;12.75;;
60078;SDS011;45951;45.824;8.824;2023-06-14T01:42:05;14.45;;;12.75;;
60078;SDS011;45951;45.824;8.824;2023-06-14T01:43:46;14.45;;;12.23;;
60078;SDS011;45951;45.824;8.824;2023-06-14T01:45:28;15.32;;;12.90;;
60078;SDS011;45951;45.824;8.824;2023-06-14T01:47:09;14.88;;;13.07;;
60078;SDS011;45951;45.824;8.824;2023-06-14T01:48:50;17.10;;;13.10;;
60078;SDS011;45951;45.824;8.824;2023-06-14T01:50:30;14.25;;;12.07;;
60078;SDS011;45951;45.824;8.824;2023-06-14T01:52:11;14.55;;;13.00;;
60078;SDS011;45951;45.824;8.824;2023-06-14T01:53:51;15.25;;;13.23;;
60078;SDS011;45951;45.824;8.824;2023-06-14T01:55:32;15.45;;;12.57;;
60078;SDS011;45951;45.824;8.824;2023-06-14T01:57:17;14.15;;;12.52;;
60078;SDS011;45951;45.824;8.824;2023-06-14T01:58:57;13.73;;;12.25;;
60078;SDS011;45951;45.824;8.824;2023-06-14T02:00:38;16.05;;;14.10;;
60078;SDS011;45951;45.824;8.824;2023-06-14T02:02:18;14.57;;;12.95;;
60078;SDS011;45951;45.824;8.824;2023-06-14T02:03:58;16.33;;;12.20;;
60078;SDS011;45951;45.824;8.824;2023-06-14T02:05:39;16.48;;;13.75;;
60078;SDS011;45951;45.824;8.824;2023-06-14T02:07:19;15.73;;;13.32;;
60078;SDS011;45951;45.824;8.824;2023-06-14T02:09:00;17.52;;;14.88;;
60078;SDS011;45951;45.824;8.824;2023-06-14T02:10:41;17.00;;;14.80;;
60078;SDS011;45951;45.824;8.824;2023-06-14T02:12:21;16.00;;;13.85;;
60078;SDS011;45951;45.824;8.824;2023-06-14T02:14:01;16.10;;;14.40;;
60078;SDS011;45951;45.824;8.824;2023-06-14T02:15:42;16.80;;;14.45;;
60078;SDS011;45951;45.824;8.824;2023-06-14T02:17:24;16.33;;;14.18;;
60078;SDS011;45951;45.824;8.824;2023-06-14T02:19:05;18.33;;;14.68;;
60078;SDS011;45951;45.824;8.824;2023-06-14T02:20:45;17.85;;;14.95;;
60078;SDS011;45951;45.824;8.824;2023-06-14T02:22:26;18.25;;;13.90;;
60078;SDS011;45951;45.824;8.824;2023-06-14T02:24:06;17.55;;;14.40;;
60078;SDS011;45951;45.824;8.824;2023-06-14T02:25:46;16.77;;;13.75;;
60078;SDS011;45951;45.824;8.824;2023-06-14T02:27:27;19.40;;;14.10;;
60078;SDS011;45951;45.824;8.824;2023-06-14T02:29:07;18.95;;;14.90;;
60078;SDS011;45951;45.824;8.824;2023-06-14T02:30:50;17.95;;;14.43;;
60078;SDS011;45951;45.824;8.824;2023-06-14T02:32:31;17.30;;;14.23;;
60078;SDS011;45951;45.824;8.824;2023-06-14T02:34:14;15.77;;;13.48;;
60078;SDS011;45951;45.824;8.824;2023-06-14T02:35:56;16.42;;;13.77;;
60078;SDS011;45951;45.824;8.824;2023-06-14T02:37:37;18.20;;;14.98;;
60078;SDS011;45951;45.824;8.824;2023-06-14T02:39:17;18.08;;;14.35;;
60078;SDS011;45951;45.824;8.824;2023-06-14T02:41:00;17.95;;;15.25;;
60078;SDS011;45951;45.824;8.824;2023-06-14T02:42:41;18.45;;;15.18;;
60078;SDS011;45951;45.824;8.824;2023-06-14T02:44:25;16.15;;;14.40;;
60078;SDS011;45951;45.824;8.824;2023-06-14T02:46:09;18.70;;;14.98;;
60078;SDS011;45951;45.824;8.824;2023-06-14T02:47:50;16.83;;;14.68;;
60078;SDS011;45951;45.824;8.824;2023-06-14T02:49:31;17.50;;;14.68;;
60078;SDS011;45951;45.824;8.824;2023-06-14T02:51:11;18.13;;;14.18;;
60078;SDS011;45951;45.824;8.824;2023-06-14T02:52:52;17.15;;;14.30;;
60078;SDS011;45951;45.824;8.824;2023-06-14T02:54:32;16.42;;;13.90;;
60078;SDS011;45951;45.824;8.824;2023-06-14T02:56:13;17.92;;;14.48;;
60078;SDS011;45951;45.824;8.824;2023-06-14T02:57:53;17.00;;;14.70;;
60078;SDS011;45951;45.824;8.824;2023-06-14T02:59:34;18.75;;;14.55;;
60078;SDS011;45951;45.824;8.824;2023-06-14T03:01:15;19.45;;;15.88;;
60078;SDS011;45951;45.824;8.824;2023-06-14T03:02:56;18.40;;;15.15;;
60078;SDS011;45951;45.824;8.824;2023-06-14T03:04:37;17.70;;;14.23;;
60078;SDS011;45951;45.824;8.824;2023-06-14T03:06:17;17.95;;;13.85;;
60078;SDS011;45951;45.824;8.824;2023-06-14T03:07:57;16.02;;;13.50;;
60078;SDS011;45951;45.824;8.824;2023-06-14T03:09:38;17.73;;;14.13;;
60078;SDS011;45951;45.824;8.824;2023-06-14T03:11:19;16.98;;;14.63;;
60078;SDS011;45951;45.824;8.824;2023-06-14T03:13:00;20.60;;;15.55;;
60078;SDS011;45951;45.824;8.824;2023-06-14T03:14:41;17.27;;;14.05;;
60078;SDS011;45951;45.824;8.824;2023-06-14T03:16:22;15.68;;;12.82;;
60078;SDS011;45951;45.824;8.824;2023-06-14T03:18:04;18.27;;;14.13;;
60078;SDS011;45951;45.824;8.824;2023-06-14T03:19:44;16.95;;;13.45;;
60078;SDS011;45951;45.824;8.824;2023-06-14T03:21:24;16.77;;;13.70;;
60078;SDS011;45951;45.824;8.824;2023-06-14T03:23:06;17.88;;;14.48;;
60078;SDS011;45951;45.824;8.824;2023-06-14T03:24:46;18.05;;;14.57;;
60078;SDS011;45951;45.824;8.824;2023-06-14T03:26:27;17.77;;;14.32;;
60078;SDS011;45951;45.824;8.824;2023-06-14T03:28:07;15.27;;;12.75;;
60078;SDS011;45951;45.824;8.824;2023-06-14T03:29:48;16.67;;;14.05;;
60078;SDS011;45951;45.824;8.824;2023-06-14T03:31:29;17.92;;;13.93;;
60078;SDS011;45951;45.824;8.824;2023-06-14T03:33:12;19.23;;;13.90;;
60078;SDS011;45951;45.824;8.824;2023-06-14T03:34:52;16.40;;;13.25;;
60078;SDS011;45951;45.824;8.824;2023-06-14T03:36:33;15.25;;;13.02;;
60078;SDS011;45951;45.824;8.824;2023-06-14T03:38:14;17.02;;;13.73;;
60078;SDS011;45951;45.824;8.824;2023-06-14T03:39:55;14.75;;;12.05;;
60078;SDS011;45951;45.824;8.824;2023-06-14T03:41:35;14.95;;;12.60;;
60078;SDS011;45951;45.824;8.824;2023-06-14T03:43:15;13.60;;;11.65;;
60078;SDS011;45951;45.824;8.824;2023-06-14T03:44:56;12.95;;;10.95;;
60078;SDS011;45951;45.824;8.824;2023-06-14T03:46:36;12.70;;;10.50;;
60078;SDS011;45951;45.824;8.824;2023-06-14T03:48:16;13.13;;;10.88;;
60078;SDS011;45951;45.824;8.824;2023-06-14T03:49:57;11.63;;;10.10;;
60078;SDS011;45951;45.824;8.824;2023-06-14T03:51:37;12.60;;;10.15;;
60078;SDS011;45951;45.824;8.824;2023-06-14T03:53:17;12.27;;;10.07;;
60078;SDS011;45951;45.824;8.824;2023-06-14T03:55:00;13.10;;;11.00;;
60078;SDS011;45951;45.824;8.824;2023-06-14T03:56:40;13.75;;;10.35;;
60078;SDS011;45951;45.824;8.824;2023-06-14T03:58:20;19.77;;;11.35;;
60078;SDS011;45951;45.824;8.824;2023-06-14T04:00:01;12.77;;;10.80;;
60078;SDS011;45951;45.824;8.824;2023-06-14T04:01:41;12.35;;;10.88;;
60078;SDS011;45951;45.824;8.824;2023-06-14T04:03:24;13.00;;;10.40;;
60078;SDS011;45951;45.824;8.824;2023-06-14T04:05:09;13.38;;;11.27;;
60078;SDS011;45951;45.824;8.824;2023-06-14T04:06:50;11.50;;;9.85;;
60078;SDS011;45951;45.824;8.824;2023-06-14T04:08:31;12.13;;;10.15;;
60078;SDS011;45951;45.824;8.824;2023-06-14T04:10:12;12.88;;;10.35;;
60078;SDS011;45951;45.824;8.824;2023-06-14T04:11:53;12.43;;;9.48;;
60078;SDS011;45951;45.824;8.824;2023-06-14T04:13:33;12.20;;;9.70;;
60078;SDS011;45951;45.824;8.824;2023-06-14T04:15:15;11.10;;;8.68;;
60078;SDS011;45951;45.824;8.824;2023-06-14T04:16:55;10.57;;;8.77;;
60078;SDS011;45951;45.824;8.824;2023-06-14T04:18:35;10.18;;;8.20;;
60078;SDS011;45951;45.824;8.824;2023-06-14T04:20:15;11.27;;;8.60;;
60078;SDS011;45951;45.824;8.824;2023-06-14T04:21:57;9.77;;;8.02;;
60078;SDS011;45951;45.824;8.824;2023-06-14T04:23:39;11.02;;;9.18;;
60078;SDS011;45951;45.824;8.824;2023-06-14T04:25:23;9.90;;;8.73;;
60078;SDS011;45951;45.824;8.824;2023-06-14T04:27:05;10.20;;;8.75;;
60078;SDS011;45951;45.824;8.824;2023-06-14T04:28:46;10.32;;;8.90;;
60078;SDS011;45951;45.824;8.824;2023-06-14T04:30:27;9.68;;;8.25;;
60078;SDS011;45951;45.824;8.824;2023-06-14T04:32:11;11.57;;;9.40;;
60078;SDS011;45951;45.824;8.824;2023-06-14T04:33:53;10.55;;;8.65;;
60078;SDS011;45951;45.824;8.824;2023-06-14T04:35:33;10.70;;;8.98;;
60078;SDS011;45951;45.824;8.824;2023-06-14T04:37:15;9.38;;;7.70;;
60078;SDS011;45951;45.824;8.824;2023-06-14T04:38:57;8.30;;;7.20;;
60078;SDS011;45951;45.824;8.824;2023-06-14T04:40:38;11.32;;;8.00;;
60078;SDS011;45951;45.824;8.824;2023-06-14T04:42:23;9.43;;;7.65;;
60078;SDS011;45951;45.824;8.824;2023-06-14T04:44:05;10.40;;;7.57;;
60078;SDS011;45951;45.824;8.824;2023-06-14T04:45:45;10.38;;;7.65;;
60078;SDS011;45951;45.824;8.824;2023-06-14T04:47:26;9.07;;;7.35;;
60078;SDS011;45951;45.824;8.824;2023-06-14T04:49:09;8.60;;;6.88;;
60078;SDS011;45951;45.824;8.824;2023-06-14T04:50:50;9.30;;;7.47;;
60078;SDS011;45951;45.824;8.824;2023-06-14T04:52:32;9.20;;;7.13;;
60078;SDS011;45951;45.824;8.824;2023-06-14T04:54:15;9.25;;;7.45;;
60078;SDS011;45951;45.824;8.824;2023-06-14T04:55:55;9.93;;;7.30;;
60078;SDS011;45951;45.824;8.824;2023-06-14T04:57:35;9.48;;;7.30;;
60078;SDS011;45951;45.824;8.824;2023-06-14T04:59:18;8.10;;;6.28;;
60078;SDS011;45951;45.824;8.824;2023-06-14T05:00:59;8.18;;;6.70;;
60078;SDS011;45951;45.824;8.824;2023-06-14T05:02:39;7.70;;;6.20;;
60078;SDS011;45951;45.824;8.824;2023-06-14T05:04:20;8.20;;;6.70;;
60078;SDS011;45951;45.824;8.824;2023-06-14T05:06:02;7.43;;;6.05;;
60078;SDS011;45951;45.824;8.824;2023-06-14T05:07:42;10.13;;;6.50;;
60078;SDS011;45951;45.824;8.824;2023-06-14T05:09:23;7.53;;;6.00;;
60078;SDS011;45951;45.824;8.824;2023-06-14T05:11:03;8.32;;;6.45;;
60078;SDS011;45951;45.824;8.824;2023-06-14T05:12:44;8.05;;;6.75;;
60078;SDS011;45951;45.824;8.824;2023-06-14T05:14:24;8.13;;;5.53;;
60078;SDS011;45951;45.824;8.824;2023-06-14T05:16:05;7.07;;;5.90;;
60078;SDS011;45951;45.824;8.824;2023-06-14T05:17:46;8.02;;;6.68;;
60078;SDS011;45951;45.824;8.824;2023-06-14T05:19:33;7.00;;;6.30;;
60078;SDS011;45951;45.824;8.824;2023-06-14T05:21:13;6.55;;;5.15;;
60078;SDS011;45951;45.824;8.824;2023-06-14T05:22:57;6.22;;;5.22;;
60078;SDS011;45951;45.824;8.824;2023-06-14T05:24:38;7.80;;;5.75;;
60078;SDS011;45951;45.824;8.824;2023-06-14T05:26:18;6.40;;;5.22;;
60078;SDS011;45951;45.824;8.824;2023-06-14T05:27:59;6.10;;;5.35;;
60078;SDS011;45951;45.824;8.824;2023-06-14T05:29:39;5.85;;;5.25;;
60078;SDS011;45951;45.824;8.824;2023-06-14T05:31:20;5.75;;;5.05;;
60078;SDS011;45951;45.824;8.824;2023-06-14T05:33:00;5.95;;;5.10;;
60078;SDS011;45951;45.824;8.824;2023-06-14T05:34:41;5.72;;;5.07;;
60078;SDS011;45951;45.824;8.824;2023-06-14T05:36:22;6.95;;;5.55;;
60078;SDS011;45951;45.824;8.824;2023-06-14T05:38:03;7.72;;;5.65;;
60078;SDS011;45951;45.824;8.824;2023-06-14T05:39:43;6.30;;;5.70;;
60078;SDS011;45951;45.824;8.824;2023-06-14T05:41:24;7.75;;;5.75;;
60078;SDS011;45951;45.824;8.824;2023-06-14T05:43:06;6.38;;;5.60;;
60078;SDS011;45951;45.824;8.824;2023-06-14T05:44:46;6.32;;;5.20;;
60078;SDS011;45951;45.824;8.824;2023-06-14T05:46:26;8.48;;;6.30;;
60078;SDS011;45951;45.824;8.824;2023-06-14T05:48:07;6.28;;;5.68;;
60078;SDS011;45951;45.824;8.824;2023-06-14T05:49:47;6.65;;;5.65;;
60078;SDS011;45951;45.824;8.824;2023-06-14T05:51:27;5.80;;;5.20;;
60078;SDS011;45951;45.824;8.824;2023-06-14T05:53:07;5.53;;;4.47;;
60078;SDS011;45951;45.824;8.824;2023-06-14T05:54:48;5.57;;;4.22;;
60078;SDS011;45951;45.824;8.824;2023-06-14T05:56:29;6.88;;;4.70;;
60078;SDS011;45951;45.824;8.824;2023-06-14T05:58:09;7.18;;;5.57;;
60078;SDS011;45951;45.824;8.824;2023-06-14T05:59:50;6.15;;;5.22;;
60078;SDS011;45951;45.824;8.824;2023-06-14T06:01:31;6.45;;;4.90;;
60078;SDS011;45951;45.824;8.824;2023-06-14T06:03:13;7.85;;;5.07;;
60078;SDS011;45951;45.824;8.824;2023-06-14T06:04:54;6.65;;;4.70;;
60078;SDS011;45951;45.824;8.824;2023-06-14T06:06:34;6.40;;;5.03;;
60078;SDS011;45951;45.824;8.824;2023-06-14T06:08:15;5.70;;;4.50;;
60078;SDS011;45951;45.824;8.824;2023-06-14T06:09:56;5.40;;;4.40;;
60078;SDS011;45951;45.824;8.824;2023-06-14T06:11:37;6.13;;;4.72;;
60078;SDS011;45951;45.824;8.824;2023-06-14T06:13:17;5.47;;;4.47;;
60078;SDS011;45951;45.824;8.824;2023-06-14T06:14:57;7.32;;;5.00;;
60078;SDS011;45951;45.824;8.824;2023-06-14T06:16:38;7.45;;;4.70;;
60078;SDS011;45951;45.824;8.824;2023-06-14T06:18:19;5.60;;;4.75;;
60078;SDS011;45951;45.824;8.824;2023-06-14T06:19:59;6.18;;;4.45;;
60078;SDS011;45951;45.824;8.824;2023-06-14T06:21:39;6.95;;;4.90;;
60078;SDS011;45951;45.824;8.824;2023-06-14T06:23:20;6.32;;;4.38;;
60078;SDS011;45951;45.824;8.824;2023-06-14T06:25:01;6.18;;;4.60;;
60078;SDS011;45951;45.824;8.824;2023-06-14T06:26:41;5.68;;;4.88;;
60078;SDS011;45951;45.824;8.824;2023-06-14T06:28:21;7.20;;;5.18;;
60078;SDS011;45951;45.824;8.824;2023-06-14T06:30:02;5.85;;;4.95;;
60078;SDS011;45951;45.824;8.824;2023-06-14T06:31:43;6.80;;;5.18;;
60078;SDS011;45951;45.824;8.824;2023-06-14T06:33:23;6.60;;;5.28;;
60078;SDS011;45951;45.824;8.824;2023-06-14T06:35:03;6.47;;;4.93;;
60078;SDS011;45951;45.824;8.824;2023-06-14T06:36:46;7.20;;;5.90;;
60078;SDS011;45951;45.824;8.824;2023-06-14T06:38:26;6.78;;;5.07;;
60078;SDS011;45951;45.824;8.824;2023-06-14T06:40:06;7.85;;;6.22;;
60078;SDS011;45951;45.824;8.824;2023-06-14T06:41:48;6.25;;;4.57;;
60078;SDS011;45951;45.824;8.824;2023-06-14T06:43:28;6.10;;;5.00;;
60078;SDS011;45951;45.824;8.824;2023-06-14T06:45:09;7.38;;;6.07;;
60078;SDS011;45951;45.824;8.824;2023-06-14T06:46:49;6.28;;;5.15;;
60078;SDS011;45951;45.824;8.824;2023-06-14T06:48:30;6.68;;;5.25;;
60078;SDS011;45951;45.824;8.824;2023-06-14T06:50:10;9.95;;;6.30;;
60078;SDS011;45951;45.824;8.824;2023-06-14T06:52:04;7.25;;;5.90;;
60078;SDS011;45951;45.824;8.824;2023-06-14T06:53:51;6.75;;;6.00;;
60078;SDS011;45951;45.824;8.824;2023-06-14T06:55:32;7.18;;;5.68;;
60078;SDS011;45951;45.824;8.824;2023-06-14T06:57:12;8.00;;;6.15;;
60078;SDS011;45951;45.824;8.824;2023-06-14T06:58:53;8.35;;;6.78;;
60078;SDS011;45951;45.824;8.824;2023-06-14T07:00:34;8.07;;;6.45;;
60078;SDS011;45951;45.824;8.824;2023-06-14T07:02:14;8.93;;;6.57;;
60078;SDS011;45951;45.824;8.824;2023-06-14T07:03:55;7.10;;;5.97;;
60078;SDS011;45951;45.824;8.824;2023-06-14T07:05:35;7.72;;;5.57;;
60078;SDS011;45951;45.824;8.824;2023-06-14T07:07:15;8.32;;;6.78;;
60078;SDS011;45951;45.824;8.824;2023-06-14T07:08:57;8.90;;;6.47;;
60078;SDS011;45951;45.824;8.824;2023-06-14T07:10:41;7.28;;;5.70;;
60078;SDS011;45951;45.824;8.824;2023-06-14T07:12:21;7.70;;;5.78;;
60078;SDS011;45951;45.824;8.824;2023-06-14T07:14:01;7.13;;;6.40;;
60078;SDS011;45951;45.824;8.824;2023-06-14T07:15:42;8.65;;;7.72;;
60078;SDS011;45951;45.824;8.824;2023-06-14T07:17:22;8.95;;;7.50;;
60078;SDS011;45951;45.824;8.824;2023-06-14T07:19:03;8.82;;;7.43;;
60078;SDS011;45951;45.824;8.824;2023-06-14T07:20:43;10.15;;;8.27;;
60078;SDS011;45951;45.824;8.824;2023-06-14T07:22:23;9.70;;;7.38;;
60078;SDS011;45951;45.824;8.824;2023-06-14T07:24:05;9.48;;;7.57;;
60078;SDS011;45951;45.824;8.824;2023-06-14T07:25:46;9.50;;;7.68;;
60078;SDS011;45951;45.824;8.824;2023-06-14T07:27:26;9.48;;;7.65;;
60078;SDS011;45951;45.824;8.824;2023-06-14T07:29:07;8.73;;;7.32;;
60078;SDS011;45951;45.824;8.824;2023-06-14T07:30:47;7.88;;;7.05;;
60078;SDS011;45951;45.824;8.824;2023-06-14T07:32:28;8.43;;;7.10;;
60078;SDS011;45951;45.824;8.824;2023-06-14T07:34:08;8.00;;;6.95;;
60078;SDS011;45951;45.824;8.824;2023-06-14T07:35:49;7.65;;;6.72;;
60078;SDS011;45951;45.824;8.824;2023-06-14T07:37:30;9.15;;;7.93;;
60078;SDS011;45951;45.824;8.824;2023-06-14T07:39:10;7.88;;;7.07;;
60078;SDS011;45951;45.824;8.824;2023-06-14T07:40:51;8.90;;;7.03;;
60078;SDS011;45951;45.824;8.824;2023-06-14T07:42:31;8.35;;;7.55;;
60078;SDS011;45951;45.824;8.824;2023-06-14T07:44:11;10.02;;;7.85;;
60078;SDS011;45951;45.824;8.824;2023-06-14T07:45:52;8.18;;;6.38;;
60078;SDS011;45951;45.824;8.824;2023-06-14T07:47:32;9.57;;;6.80;;
60078;SDS011;45951;45.824;8.824;2023-06-14T07:49:13;10.38;;;7.03;;
60078;SDS011;45951;45.824;8.824;2023-06-14T07:50:53;7.95;;;7.15;;
60078;SDS011;45951;45.824;8.824;2023-06-14T07:52:34;7.45;;;6.45;;
60078;SDS011;45951;45.824;8.824;2023-06-14T07:54:14;8.07;;;6.47;;
60078;SDS011;45951;45.824;8.824;2023-06-14T07:55:54;6.88;;;6.18;;
60078;SDS011;45951;45.824;8.824;2023-06-14T07:57:35;7.43;;;6.43;;
60078;SDS011;45951;45.824;8.824;2023-06-14T07:59:15;9.23;;;6.85;;
60078;SDS011;45951;45.824;8.824;2023-06-14T08:00:55;8.15;;;6.63;;
60078;SDS011;45951;45.824;8.824;2023-06-14T08:02:36;8.02;;;6.63;;
60078;SDS011;45951;45.824;8.824;2023-06-14T08:04:16;7.82;;;6.53;;
60078;SDS011;45951;45.824;8.824;2023-06-14T08:05:56;6.25;;;5.35;;
60078;SDS011;45951;45.824;8.824;2023-06-14T08:07:37;7.25;;;5.60;;
60078;SDS011;45951;45.824;8.824;2023-06-14T08:09:17;6.30;;;5.60;;
60078;SDS011;45951;45.824;8.824;2023-06-14T08:10:58;6.75;;;5.22;;
60078;SDS011;45951;45.824;8.824;2023-06-14T08:12:39;7.20;;;5.18;;
60078;SDS011;45951;45.824;8.824;2023-06-14T08:14:19;9.32;;;5.57;;
60078;SDS011;45951;45.824;8.824;2023-06-14T08:15:59;5.78;;;4.90;;
60078;SDS011;45951;45.824;8.824;2023-06-14T08:17:42;6.80;;;5.60;;
60078;SDS011;45951;45.824;8.824;2023-06-14T08:19:23;7.65;;;5.82;;
60078;SDS011;45951;45.824;8.824;2023-06-14T08:21:03;7.15;;;4.68;;
60078;SDS011;45951;45.824;8.824;2023-06-14T08:22:44;6.90;;;5.00;;
60078;SDS011;45951;45.824;8.824;2023-06-14T08:24:26;6.20;;;5.30;;
60078;SDS011;45951;45.824;8.824;2023-06-14T08:26:09;6.93;;;4.75;;
60078;SDS011;45951;45.824;8.824;2023-06-14T08:27:50;7.18;;;5.65;;
60078;SDS011;45951;45.824;8.824;2023-06-14T08:29:30;8.23;;;5.82;;
60078;SDS011;45951;45.824;8.824;2023-06-14T08:31:12;7.35;;;5.10;;
60078;SDS011;45951;45.824;8.824;2023-06-14T08:32:53;6.50;;;5.43;;
60078;SDS011;45951;45.824;8.824;2023-06-14T08:34:35;6.93;;;5.03;;
60078;SDS011;45951;45.824;8.824;2023-06-14T08:36:15;6.00;;;4.80;;
60078;SDS011;45951;45.824;8.824;2023-06-14T08:37:56;7.97;;;5.90;;
60078;SDS011;45951;45.824;8.824;2023-06-14T08:39:36;6.05;;;4.82;;
60078;SDS011;45951;45.824;8.824;2023-06-14T08:41:20;6.43;;;5.22;;
60078;SDS011;45951;45.824;8.824;2023-06-14T08:43:02;6.20;;;4.97;;
60078;SDS011;45951;45.824;8.824;2023-06-14T08:44:42;6.90;;;5.25;;
60078;SDS011;45951;45.824;8.824;2023-06-14T08:46:22;6.85;;;5.00;;
60078;SDS011;45951;45.824;8.824;2023-06-14T08:48:07;5.95;;;5.07;;
60078;SDS011;45951;45.824;8.824;2023-06-14T08:49:47;6.93;;;5.32;;
60078;SDS011;45951;45.824;8.824;2023-06-14T08:51:29;6.30;;;5.00;;
60078;SDS011;45951;45.824;8.824;2023-06-14T08:53:14;6.55;;;5.03;;
60078;SDS011;45951;45.824;8.824;2023-06-14T08:54:59;6.75;;;5.32;;
60078;SDS011;45951;45.824;8.824;2023-06-14T08:56:42;7.85;;;5.90;;
60078;SDS011;45951;45.824;8.824;2023-06-14T08:58:24;7.00;;;5.25;;
60078;SDS011;45951;45.824;8.824;2023-06-14T09:00:04;8.98;;;5.95;;
60078;SDS011;45951;45.824;8.824;2023-06-14T09:01:51;7.65;;;5.55;;
60078;SDS011;45951;45.824;8.824;2023-06-14T09:03:32;7.45;;;6.05;;
60078;SDS011;45951;45.824;8.824;2023-06-14T09:05:13;8.00;;;5.80;;
60078;SDS011;45951;45.824;8.824;2023-06-14T09:06:53;11.65;;;5.63;;
60078;SDS011;45951;45.824;8.824;2023-06-14T09:08:34;6.97;;;5.32;;
60078;SDS011;45951;45.824;8.824;2023-06-14T09:10:15;7.47;;;5.57;;
60078;SDS011;45951;45.824;8.824;2023-06-14T09:11:55;7.28;;;5.35;;
60078;SDS011;45951;45.824;8.824;2023-06-14T09:13:36;8.23;;;5.78;;
60078;SDS011;45951;45.824;8.824;2023-06-14T09:15:16;7.93;;;5.88;;
60078;SDS011;45951;45.824;8.824;2023-06-14T09:16:56;6.50;;;4.88;;
60078;SDS011;45951;45.824;8.824;2023-06-14T09:18:41;8.15;;;5.57;;
60078;SDS011;45951;45.824;8.824;2023-06-14T09:20:28;8.45;;;5.35;;
60078;SDS011;45951;45.824;8.824;2023-06-14T09:22:11;6.80;;;5.38;;
60078;SDS011;45951;45.824;8.824;2023-06-14T09:23:51;6.63;;;5.00;;
60078;SDS011;45951;45.824;8.824;2023-06-14T09:25:42;7.68;;;5.57;;
60078;SDS011;45951;45.824;8.824;2023-06-14T09:27:26;7.15;;;5.30;;
60078;SDS011;45951;45.824;8.824;2023-06-14T09:29:08;8.30;;;6.13;;
60078;SDS011;45951;45.824;8.824;2023-06-14T09:30:49;6.63;;;5.18;;
60078;SDS011;45951;45.824;8.824;2023-06-14T09:32:30;6.47;;;5.25;;
60078;SDS011;45951;45.824;8.824;2023-06-14T09:34:10;6.30;;;5.47;;
60078;SDS011;45951;45.824;8.824;2023-06-14T09:35:51;7.18;;;5.20;;
60078;SDS011;45951;45.824;8.824;2023-06-14T09:37:32;6.57;;;5.03;;
60078;SDS011;45951;45.824;8.824;2023-06-14T09:39:16;6.97;;;5.43;;
60078;SDS011;45951;45.824;8.824;2023-06-14T09:40:57;7.57;;;6.15;;
60078;SDS011;45951;45.824;8.824;2023-06-14T09:42:38;7.07;;;5.15;;
60078;SDS011;45951;45.824;8.824;2023-06-14T09:44:19;7.63;;;5.25;;
60078;SDS011;45951;45.824;8.824;2023-06-14T09:46:03;6.47;;;5.43;;
60078;SDS011;45951;45.824;8.824;2023-06-14T09:47:44;6.57;;;5.13;;
60078;SDS011;45951;45.824;8.824;2023-06-14T09:49:25;6.00;;;5.18;;
60078;SDS011;45951;45.824;8.824;2023-06-14T09:51:06;7.15;;;5.28;;
60078;SDS011;45951;45.824;8.824;2023-06-14T09:52:46;7.10;;;5.40;;
60078;SDS011;45951;45.824;8.824;2023-06-14T09:54:30;7.45;;;5.03;;
60078;SDS011;45951;45.824;8.824;2023-06-14T09:56:11;5.57;;;4.10;;
60078;SDS011;45951;45.824;8.824;2023-06-14T09:57:53;5.60;;;3.97;;
60078;SDS011;45951;45.824;8.824;2023-06-14T09:59:34;5.97;;;4.18;;
60078;SDS011;45951;45.824;8.824;2023-06-14T10:01:15;6.15;;;4.70;;
60078;SDS011;45951;45.824;8.824;2023-06-14T10:02:57;7.05;;;5.00;;
60078;SDS011;45951;45.824;8.824;2023-06-14T10:04:43;6.03;;;4.75;;